Terminal Aerodrome Forecast
Issued by NWS Duluth, MN

Home | Current Version | Previous Version | Text Only | Print | Product List | Glossary On
Versions: 1 2 3 4 5 6 7 8 9 10 11 12 13 14 15 16 17 18 19 20 21 22 23 24 25 26 27 28 29 30
000
FTUS43 KDLH 301641 AAD
TAFINL
TAF AMD
KINL 301641Z 3017/0112 14008KT P6SM OVC004
     FM301800 13008KT P6SM OVC008
     FM302100 13006KT P6SM SCT010
     FM011000 VRB02KT 3SM BR SCT006=

USA.gov is the U.S. government's official web portal to all federal, state and local government web resources and services.